Thursday, August 16, 2018, 12:00 AM EDT
Back to Local

KHZY, Ashtabula County Airport

Location: Jefferson, OH, United States Lat: 41.783
Local Time: 12:00 AM EDT ( 4:00 GMT) Lon: -80.7
Time Zone: US/Eastern Elev: 925 ft

Show me the last for .
Show Decoded

2018-08-15 22:53 METAR KHZY 160253Z AUTO 00000KT 8SM CLR 21/21 A3005 RMK AO2 SLP170 T02110211
                 51005 =
2018-08-15 21:53 METAR KHZY 160153Z AUTO 11003KT 9SM CLR 22/22 A3005 RMK AO2 SLP170 T02170217 =
2018-08-15 20:53 METAR KHZY 160053Z AUTO 00000KT 10SM CLR 22/21 A3004 RMK AO2 SLP168 T02220211 =
2018-08-15 19:53 METAR KHZY 152353Z AUTO 00000KT 10SM CLR 25/22 A3004 RMK AO2 SLP166 T02500217
                 10289 20250 55001 =
2018-08-15 18:53 METAR KHZY 152253Z AUTO 26004KT 10SM CLR 27/20 A3003 RMK AO2 SLP164 T02720200 =
2018-08-15 17:53 METAR KHZY 152153Z AUTO 29005KT 10SM CLR 28/19 A3004 RMK AO2 SLP164 T02780194 =
2018-08-15 16:53 METAR KHZY 152053Z AUTO 28006KT 10SM CLR 28/20 A3004 RMK AO2 SLP166 T02830200
                 58005 =
2018-08-15 15:53 METAR KHZY 151953Z AUTO 30004KT 10SM CLR 28/20 A3005 RMK AO2 SLP169 T02830200 =
2018-08-15 14:53 METAR KHZY 151853Z AUTO VRB05KT 10SM FEW040 28/21 A3006 RMK AO2 SLP172 T02830206
                 =
2018-08-15 13:53 METAR KHZY 151753Z AUTO 30009KT 260V320 10SM CLR 28/19 A3006 RMK AO2 SLP171
                 T02830194 10283 20194 51003 =
2018-08-15 12:53 METAR KHZY 151653Z AUTO 29008KT 10SM CLR 27/20 A3006 RMK AO2 SLP171 T02720200 =
2018-08-15 11:53 METAR KHZY 151553Z AUTO 30008KT 10SM CLR 28/21 A3005 RMK AO2 SLP169 T02780211 =
2018-08-15 10:53 METAR KHZY 151453Z AUTO 29008KT 9SM FEW019 27/22 A3005 RMK AO2 SLP168 T02670217
                 53007 =
2018-08-15 09:53 METAR KHZY 151353Z AUTO 27008KT 8SM CLR 24/23 A3004 RMK AO2 SLP165 T02440228 =
2018-08-15 08:53 METAR KHZY 151253Z AUTO 25006KT 7SM CLR 22/21 A3003 RMK AO2 SLP164 T02220211 =
2018-08-15 07:53 METAR KHZY 151153Z AUTO 00000KT 6SM BR CLR 19/19 A3003 RMK AO2 SLP162 T01940194
                 10194 20178 53012 =
2018-08-15 06:53 METAR KHZY 151053Z AUTO 00000KT 5SM BR CLR 18/18 A3001 RMK AO2 SLP157 T01780178
                 =
2018-08-15 05:53 METAR KHZY 150953Z AUTO 00000KT 8SM CLR 18/18 A3000 RMK AO2 SLP152 T01830178 =
2018-08-15 04:53 METAR KHZY 150853Z AUTO 00000KT 8SM CLR 18/18 A2999 RMK AO2 SLP148 T01780178
                 53002 =
2018-08-15 03:53 METAR KHZY 150753Z AUTO 20003KT 10SM CLR 18/18 A2998 RMK AO2 SLP145 T01830178 =
2018-08-15 02:53 METAR KHZY 150653Z AUTO 20003KT 10SM CLR 19/18 A2998 RMK AO2 SLP145 T01890178 =
2018-08-15 01:53 METAR KHZY 150553Z AUTO 00000KT 10SM CLR 19/17 A2998 RMK AO2 SLP146 T01890172
                 10244 20178 50001 =
2018-08-15 00:53 METAR KHZY 150453Z AUTO 00000KT 10SM CLR 18/17 A2999 RMK AO2 SLP148 T01780172
                 402830178 =

Support USWX by starting your Amazon purchase here.